Latest Weather Observations for Jimna

IDQ60901

Issued at 3:41 pm EST Sunday 7 February 2016 (issued every 10 minutes, with the page automatically refreshed every 10 minutes)

About weather observations | Map of Brisbane area stations | Latest observations for Brisbane area | Other Formats
Station Details ID: 040651 Name: JIMNA FORESTRY Lat: -26.66 Lon: 152.46 Height: 523.0 m
Data from the previous 72 hours. | See also: Recent months at Jimna
Date/Time
EST
Tmp

°C
App
Tmp
°C
Dew
Point
°C
Rel
Hum
%
Delta-T

°C
Wind Press
QNH
hPa
Press
MSL
hPa
Rain
since
9 am
mm
Dir
 
Spd
km/h
Gust
km/h
Spd
kts
Gust
kts
07/03:30pm 24.5 - 17.5 65 4.5 - - - - - - - 0.0
07/03:00pm 24.6 - 18.1 67 4.2 - - - - - - - 0.0
07/02:30pm 24.4 - 18.6 70 3.8 - - - - - - - 0.0
07/02:00pm 23.9 - 17.6 68 4.0 - - - - - - - 0.0
07/01:30pm 23.7 - 18.6 73 3.3 - - - - - - - 0.0
07/01:00pm 22.2 - 17.1 73 3.2 - - - - - - - 0.0
07/12:30pm 22.8 - 17.5 72 3.4 - - - - - - - 0.0
07/12:00pm 22.3 - 17.0 72 3.3 - - - - - - - 0.0
07/11:30am 22.6 - 17.5 73 3.2 - - - - - - - 0.0
07/11:00am 22.2 - 17.1 73 3.2 - - - - - - - 0.0
07/10:30am 21.6 - 17.4 77 2.6 - - - - - - - 0.0
07/10:00am 22.0 - 17.2 74 3.0 - - - - - - - 0.0
07/09:30am 21.9 - 16.8 73 3.2 - - - - - - - 0.0
07/09:00am 22.2 - 17.3 74 3.1 - - - - - - - 0.0
07/08:30am 21.4 - 17.2 77 2.6 - - - - - - - 0.0
07/08:00am 20.6 - 18.0 85 1.6 - - - - - - - 0.0
07/07:30am 19.3 - 17.4 89 1.2 - - - - - - - 0.0
07/07:00am 19.1 - 17.2 89 1.2 - - - - - - - 0.0
07/06:30am 19.4 - 17.5 89 1.2 - - - - - - - 0.0
07/06:00am 19.5 - 17.5 88 1.3 - - - - - - - 0.0
07/05:30am 19.4 - 17.4 88 1.2 - - - - - - - 0.0
07/05:00am 19.4 - 17.2 87 1.4 - - - - - - - 0.0
07/04:30am 19.3 - 16.9 86 1.5 - - - - - - - 0.0
07/04:00am 19.5 - 16.9 85 1.6 - - - - - - - 0.0
07/03:30am 19.6 - 16.8 84 1.7 - - - - - - - 0.0
07/03:00am 19.6 - 16.8 84 1.7 - - - - - - - 0.0
07/02:30am 19.6 - 16.8 84 1.7 - - - - - - - 0.0
07/02:00am 20.0 - 16.6 81 2.1 - - - - - - - 0.0
07/01:30am 19.9 - 16.9 83 1.9 - - - - - - - 0.0
07/01:00am 19.8 - 17.0 84 1.7 - - - - - - - 0.0
07/12:30am 19.6 - 17.2 86 1.5 - - - - - - - 0.0
07/12:00am 19.6 - 17.4 87 1.4 - - - - - - - 0.0
 
Date/Time
EST
Tmp

°C
App
Tmp
°C
Dew
Point
°C
Rel
Hum
%
Delta-T

°C
Wind Press
QNH
hPa
Press
MSL
hPa
Rain
since
9 am
mm
Dir
 
Spd
km/h
Gust
km/h
Spd
kts
Gust
kts
06/11:30pm 19.6 - 17.6 88 1.3 - - - - - - - 0.0
06/11:00pm 19.6 - 17.6 88 1.3 - - - - - - - 0.0
06/10:30pm 19.9 - 17.5 86 1.5 - - - - - - - 0.0
06/10:00pm 20.3 - 17.5 84 1.8 - - - - - - - 0.0
06/09:30pm 20.1 - 17.5 85 1.6 - - - - - - - 0.0
06/09:00pm 20.0 - 17.4 85 1.6 - - - - - - - 0.0
06/08:30pm 20.3 - 17.5 84 1.8 - - - - - - - 0.0
06/08:00pm 20.8 - 17.0 79 2.4 - - - - - - - 0.0
06/07:30pm 20.9 - 17.3 80 2.3 - - - - - - - 0.0
06/07:00pm 20.8 - 17.2 80 2.3 - - - - - - - 0.0
06/06:30pm 21.1 - 16.9 77 2.6 - - - - - - - 0.0
06/06:00pm 21.3 - 17.5 79 2.4 - - - - - - - 0.0
06/05:30pm 21.5 - 17.3 77 2.6 - - - - - - - 0.0
06/05:00pm 21.6 - 17.8 79 2.4 - - - - - - - 0.0
06/04:30pm 21.7 - 17.5 77 2.6 - - - - - - - 0.0
06/04:00pm 22.3 - 17.2 73 3.2 - - - - - - - 0.0
06/03:30pm 22.8 - 17.9 74 3.1 - - - - - - - 0.0
06/03:00pm 22.9 - 17.4 71 3.5 - - - - - - - 0.0
06/02:30pm 23.0 - 17.5 71 3.5 - - - - - - - 0.0
06/02:00pm 23.7 - 18.1 71 3.6 - - - - - - - 0.0
06/01:30pm 23.1 - 18.2 74 3.1 - - - - - - - 0.0
06/01:00pm 21.8 - 18.4 81 2.2 - - - - - - - 0.0
06/12:30pm 23.9 - 17.9 69 3.8 - - - - - - - 0.0
06/12:00pm 22.6 - 18.8 79 2.5 - - - - - - - 0.0
06/11:30am 22.9 - 19.3 80 2.3 - - - - - - - 0.0
06/11:00am 21.7 - 18.7 83 1.9 - - - - - - - 0.0
06/10:30am 21.3 - 18.7 85 1.7 - - - - - - - 0.0
06/10:00am 21.4 - 19.3 88 1.4 - - - - - - - 0.0
06/09:30am 20.9 - 18.8 88 1.3 - - - - - - - 0.0
06/09:00am 21.1 - 20.1 94 0.7 - - - - - - - 0.0
06/08:30am 20.5 - - - - - - - - - - - 0.0
06/08:00am 20.1 - 19.8 98 0.2 - - - - - - - 0.0
06/07:30am 19.9 - 20.2 - - - - - - - - - 0.0
06/07:00am 19.5 - 19.7 - - - - - - - - - 0.0
06/06:30am 19.2 - 19.5 - - - - - - - - - 0.0
06/06:00am 19.0 - 19.2 - - - - - - - - - 0.0
06/05:30am 18.9 - 19.1 - - - - - - - - - 0.0
06/05:00am 18.8 - 19.0 - - - - - - - - - 0.0
06/04:30am 18.7 - 18.9 - - - - - - - - - 0.0
06/04:00am 18.7 - 18.7 100 0.0 - - - - - - - 0.0
06/03:30am 18.7 - 18.7 100 0.0 - - - - - - - 0.0
06/03:00am 18.7 - 18.5 99 0.1 - - - - - - - 0.0
06/02:30am 18.7 - 18.5 99 0.1 - - - - - - - 0.0
06/02:00am 18.8 - 18.5 98 0.2 - - - - - - - 0.0
06/01:30am 18.8 - 18.5 98 0.2 - - - - - - - 0.0
06/01:00am 18.8 - 18.3 97 0.3 - - - - - - - 0.0
06/12:30am 18.9 - 17.4 91 0.9 - - - - - - - 0.0
06/12:00am 19.2 - 17.3 89 1.2 - - - - - - - 0.0
 
Date/Time
EST
Tmp

°C
App
Tmp
°C
Dew
Point
°C
Rel
Hum
%
Delta-T

°C
Wind Press
QNH
hPa
Press
MSL
hPa
Rain
since
9 am
mm
Dir
 
Spd
km/h
Gust
km/h
Spd
kts
Gust
kts
05/11:30pm 19.4 - 17.5 89 1.2 - - - - - - - 0.0
05/11:00pm 19.5 - 17.5 88 1.3 - - - - - - - 0.0
05/10:30pm 19.4 - 17.5 89 1.2 - - - - - - - 0.0
05/10:00pm 19.8 - 17.4 86 1.5 - - - - - - - 0.0
05/09:30pm 19.8 - 17.4 86 1.5 - - - - - - - 0.0
05/09:00pm 20.0 - 17.6 86 1.5 - - - - - - - 0.0
05/08:30pm 20.0 - 18.0 88 1.3 - - - - - - - 0.0
05/08:00pm 20.1 - 17.9 87 1.4 - - - - - - - 0.0
05/07:30pm 20.0 - 18.0 88 1.3 - - - - - - - 0.0
05/07:00pm 20.6 - 18.0 85 1.6 - - - - - - - 0.0
05/06:30pm 20.5 - 18.1 86 1.5 - - - - - - - 0.0
05/06:00pm 20.7 - 18.5 87 1.4 - - - - - - - 0.0
05/05:30pm 20.7 - 18.6 88 1.3 - - - - - - - 0.0
05/05:00pm 20.6 - 18.4 87 1.4 - - - - - - - 0.0
05/04:30pm 20.7 - 18.3 86 1.5 - - - - - - - 0.0
05/04:00pm 20.6 - 18.0 85 1.6 - - - - - - - 0.0
05/03:30pm 21.0 - 18.0 83 1.9 - - - - - - - 0.0
05/03:00pm 21.5 - 17.9 80 2.3 - - - - - - - 0.0
05/02:30pm 22.1 - 17.5 75 2.9 - - - - - - - 0.0
05/02:00pm 22.2 - 17.6 75 2.9 - - - - - - - 0.0
05/01:30pm 22.3 - 18.1 77 2.7 - - - - - - - 0.0
05/01:00pm 21.7 - 17.3 76 2.8 - - - - - - - 0.0
05/12:30pm 21.8 - 17.2 75 2.9 - - - - - - - 0.0
05/12:00pm 22.2 - 17.3 74 3.1 - - - - - - - 0.0
05/11:30am 22.1 - 17.0 73 3.2 - - - - - - - 0.0
05/11:00am 22.6 - 17.7 74 3.1 - - - - - - - 0.0
05/10:30am 22.2 - 17.6 75 2.9 - - - - - - - 0.0
05/10:00am 22.0 - 17.2 74 3.0 - - - - - - - 0.0
05/09:30am 21.8 - 18.2 80 2.3 - - - - - - - 0.0
05/09:00am 21.1 - 17.1 78 2.5 - - - - - - - 0.0
05/08:30am 21.3 - 17.7 80 2.3 - - - - - - - 0.0
05/08:00am 20.8 - 17.2 80 2.3 - - - - - - - 0.0
05/07:30am 20.5 - 17.5 83 1.9 - - - - - - - 0.0
05/07:00am 20.0 - 17.2 84 1.7 - - - - - - - 0.0
05/06:30am 19.8 - 17.2 85 1.6 - - - - - - - 0.0
05/06:00am 19.8 - 17.2 85 1.6 - - - - - - - 0.0
05/05:30am 19.7 - 17.3 86 1.5 - - - - - - - 0.0
05/05:00am 19.7 - 17.3 86 1.5 - - - - - - - 0.0
05/04:30am 19.8 - 17.4 86 1.5 - - - - - - - 0.0
05/04:00am 19.8 - 17.2 85 1.6 - - - - - - - 0.0
05/03:30am 19.8 - 17.6 87 1.4 - - - - - - - 0.0
05/03:00am 19.6 - 17.7 89 1.2 - - - - - - - 0.0
05/02:30am 19.5 - 17.6 89 1.2 - - - - - - - 0.0
05/02:00am 19.4 - 17.9 91 0.9 - - - - - - - 0.0
05/01:30am 18.8 - 17.6 93 0.7 - - - - - - - 0.0
05/01:00am 18.4 - 16.9 91 0.9 - - - - - - - 0.0
05/12:30am 18.3 - 16.8 91 0.9 - - - - - - - 0.0
05/12:00am 18.4 - 16.7 90 1.0 - - - - - - - 0.0
 
Date/Time
EST
Tmp

°C
App
Tmp
°C
Dew
Point
°C
Rel
Hum
%
Delta-T

°C
Wind Press
QNH
hPa
Press
MSL
hPa
Rain
since
9 am
mm
Dir
 
Spd
km/h
Gust
km/h
Spd
kts
Gust
kts
04/11:30pm 18.4 - 16.6 89 1.1 - - - - - - - 0.0
04/11:00pm 19.0 - 16.0 83 1.8 - - - - - - - 0.0
04/10:30pm 19.2 - 15.3 78 2.3 - - - - - - - 0.0
04/10:00pm 19.2 - 16.1 82 1.9 - - - - - - - 0.0
04/09:30pm 19.1 - 16.1 83 1.8 - - - - - - - 0.0
04/09:00pm 18.9 - 16.5 86 1.5 - - - - - - - 0.0
04/08:30pm 19.3 - 16.3 83 1.8 - - - - - - - 0.0
04/08:00pm 19.8 - 17.0 84 1.7 - - - - - - - 0.0
04/07:30pm 20.1 - 17.3 84 1.7 - - - - - - - 0.0
04/07:00pm 20.8 - 17.8 83 1.9 - - - - - - - 0.0
04/06:30pm 21.5 - 18.1 81 2.2 - - - - - - - 0.0
04/06:00pm 21.9 - 17.5 76 2.8 - - - - - - - 0.0
04/05:30pm 22.1 - 17.7 76 2.8 - - - - - - - 0.0
04/05:00pm 22.0 - 18.0 78 2.5 - - - - - - - 0.0
04/04:30pm 22.5 - 18.7 79 2.4 - - - - - - - 0.0
04/04:00pm 22.4 - 18.2 77 2.7 - - - - - - - 0.0

Latest Capital City Observations: Canberra | Sydney | Melbourne | Brisbane | Adelaide | Perth | Hobart | Darwin

Other Formats:

Comma delimited format used in spreadsheet applications
http://www.bom.gov.au/fwo/IDQ60901/IDQ60901.94557.axf

JavaScript Object Notation format (JSON) in row-major order
http://www.bom.gov.au/fwo/IDQ60901/IDQ60901.94557.json